sensor_id;sensor_type;location;lat;lon;timestamp;P1;durP1;ratioP1;P2;durP2;ratioP2
18298;SDS011;9275;48.690;9.686;2024-02-21T00:03:44;5.37;;;1.20;;
18298;SDS011;9275;48.690;9.686;2024-02-21T00:08:50;2.07;;;0.87;;
18298;SDS011;9275;48.690;9.686;2024-02-21T00:13:55;16.50;;;2.00;;
18298;SDS011;9275;48.690;9.686;2024-02-21T00:18:59;17.27;;;2.10;;
18298;SDS011;9275;48.690;9.686;2024-02-21T00:24:06;21.57;;;2.40;;
18298;SDS011;9275;48.690;9.686;2024-02-21T00:29:10;10.43;;;1.40;;
18298;SDS011;9275;48.690;9.686;2024-02-21T00:34:15;16.80;;;1.90;;
18298;SDS011;9275;48.690;9.686;2024-02-21T00:39:21;9.53;;;1.40;;
18298;SDS011;9275;48.690;9.686;2024-02-21T00:44:26;118.73;;;7.53;;
18298;SDS011;9275;48.690;9.686;2024-02-21T00:49:30;21.37;;;2.10;;
18298;SDS011;9275;48.690;9.686;2024-02-21T00:54:36;36.73;;;3.77;;
18298;SDS011;9275;48.690;9.686;2024-02-21T00:59:54;43.87;;;4.37;;
18298;SDS011;9275;48.690;9.686;2024-02-21T01:04:58;56.93;;;4.30;;
18298;SDS011;9275;48.690;9.686;2024-02-21T01:10:06;41.43;;;3.47;;
18298;SDS011;9275;48.690;9.686;2024-02-21T01:15:11;47.60;;;3.57;;
18298;SDS011;9275;48.690;9.686;2024-02-21T01:20:16;157.50;;;9.17;;
18298;SDS011;9275;48.690;9.686;2024-02-21T01:25:22;84.53;;;5.80;;
18298;SDS011;9275;48.690;9.686;2024-02-21T01:30:27;11.17;;;1.83;;
18298;SDS011;9275;48.690;9.686;2024-02-21T01:35:31;47.77;;;3.63;;
18298;SDS011;9275;48.690;9.686;2024-02-21T01:40:37;90.43;;;6.43;;
18298;SDS011;9275;48.690;9.686;2024-02-21T01:45:42;300.73;;;16.07;;
18298;SDS011;9275;48.690;9.686;2024-02-21T01:50:47;9.87;;;2.00;;
18298;SDS011;9275;48.690;9.686;2024-02-21T01:55:54;31.73;;;3.10;;
18298;SDS011;9275;48.690;9.686;2024-02-21T02:00:59;84.10;;;6.43;;
18298;SDS011;9275;48.690;9.686;2024-02-21T02:06:05;96.50;;;6.73;;
18298;SDS011;9275;48.690;9.686;2024-02-21T02:11:12;86.03;;;5.03;;
18298;SDS011;9275;48.690;9.686;2024-02-21T02:16:18;118.23;;;6.30;;
18298;SDS011;9275;48.690;9.686;2024-02-21T02:21:23;66.10;;;4.90;;
18298;SDS011;9275;48.690;9.686;2024-02-21T02:26:34;41.13;;;3.87;;
18298;SDS011;9275;48.690;9.686;2024-02-21T02:31:38;25.90;;;2.70;;
18298;SDS011;9275;48.690;9.686;2024-02-21T02:36:43;42.43;;;4.27;;
18298;SDS011;9275;48.690;9.686;2024-02-21T02:41:50;52.33;;;4.30;;
18298;SDS011;9275;48.690;9.686;2024-02-21T02:46:55;22.63;;;2.53;;
18298;SDS011;9275;48.690;9.686;2024-02-21T02:51:59;27.10;;;2.33;;
18298;SDS011;9275;48.690;9.686;2024-02-21T02:57:05;9.97;;;1.67;;
18298;SDS011;9275;48.690;9.686;2024-02-21T03:02:09;9.63;;;1.40;;
18298;SDS011;9275;48.690;9.686;2024-02-21T03:07:14;5.20;;;1.60;;
18298;SDS011;9275;48.690;9.686;2024-02-21T03:12:20;9.53;;;1.97;;
18298;SDS011;9275;48.690;9.686;2024-02-21T03:17:30;22.70;;;2.43;;
18298;SDS011;9275;48.690;9.686;2024-02-21T03:22:36;26.03;;;2.40;;
18298;SDS011;9275;48.690;9.686;2024-02-21T03:27:43;3.93;;;1.10;;
18298;SDS011;9275;48.690;9.686;2024-02-21T03:32:48;11.77;;;1.50;;
18298;SDS011;9275;48.690;9.686;2024-02-21T03:37:52;12.70;;;1.33;;
18298;SDS011;9275;48.690;9.686;2024-02-21T03:42:58;3.73;;;0.80;;
18298;SDS011;9275;48.690;9.686;2024-02-21T03:48:03;15.83;;;1.63;;
18298;SDS011;9275;48.690;9.686;2024-02-21T03:53:09;21.40;;;1.97;;
18298;SDS011;9275;48.690;9.686;2024-02-21T03:58:15;2.70;;;0.93;;
18298;SDS011;9275;48.690;9.686;2024-02-21T04:03:19;8.40;;;0.80;;
18298;SDS011;9275;48.690;9.686;2024-02-21T04:08:24;5.80;;;1.33;;
18298;SDS011;9275;48.690;9.686;2024-02-21T04:13:30;6.80;;;0.97;;
18298;SDS011;9275;48.690;9.686;2024-02-21T04:18:34;2.57;;;1.03;;
18298;SDS011;9275;48.690;9.686;2024-02-21T04:23:39;27.57;;;2.33;;
18298;SDS011;9275;48.690;9.686;2024-02-21T04:28:46;33.03;;;2.23;;
18298;SDS011;9275;48.690;9.686;2024-02-21T04:33:50;10.77;;;1.27;;
18298;SDS011;9275;48.690;9.686;2024-02-21T04:38:55;5.17;;;1.30;;
18298;SDS011;9275;48.690;9.686;2024-02-21T04:44:01;14.23;;;1.50;;
18298;SDS011;9275;48.690;9.686;2024-02-21T04:49:06;11.23;;;1.40;;
18298;SDS011;9275;48.690;9.686;2024-02-21T04:54:11;10.07;;;1.30;;
18298;SDS011;9275;48.690;9.686;2024-02-21T04:59:17;9.43;;;1.40;;
18298;SDS011;9275;48.690;9.686;2024-02-21T05:04:21;8.20;;;1.30;;
18298;SDS011;9275;48.690;9.686;2024-02-21T05:09:26;28.83;;;2.33;;
18298;SDS011;9275;48.690;9.686;2024-02-21T05:14:32;32.63;;;2.40;;
18298;SDS011;9275;48.690;9.686;2024-02-21T05:19:37;15.07;;;1.30;;
18298;SDS011;9275;48.690;9.686;2024-02-21T05:24:42;21.23;;;1.80;;
18298;SDS011;9275;48.690;9.686;2024-02-21T05:29:48;8.43;;;1.17;;
18298;SDS011;9275;48.690;9.686;2024-02-21T05:34:52;33.03;;;2.33;;
18298;SDS011;9275;48.690;9.686;2024-02-21T05:39:57;5.07;;;0.97;;
18298;SDS011;9275;48.690;9.686;2024-02-21T05:45:04;3.13;;;0.70;;
18298;SDS011;9275;48.690;9.686;2024-02-21T05:50:09;6.20;;;0.90;;
18298;SDS011;9275;48.690;9.686;2024-02-21T05:55:14;7.53;;;0.70;;
18298;SDS011;9275;48.690;9.686;2024-02-21T06:00:21;3.23;;;0.53;;
18298;SDS011;9275;48.690;9.686;2024-02-21T06:05:25;2.00;;;0.67;;
18298;SDS011;9275;48.690;9.686;2024-02-21T06:10:30;8.37;;;0.83;;
18298;SDS011;9275;48.690;9.686;2024-02-21T06:15:36;6.43;;;0.90;;
18298;SDS011;9275;48.690;9.686;2024-02-21T06:20:41;7.93;;;1.00;;
18298;SDS011;9275;48.690;9.686;2024-02-21T06:25:45;7.37;;;0.90;;
18298;SDS011;9275;48.690;9.686;2024-02-21T06:30:52;3.23;;;0.70;;
18298;SDS011;9275;48.690;9.686;2024-02-21T06:35:56;7.10;;;0.90;;
18298;SDS011;9275;48.690;9.686;2024-02-21T06:41:01;5.40;;;0.57;;
18298;SDS011;9275;48.690;9.686;2024-02-21T06:46:07;7.57;;;0.80;;
18298;SDS011;9275;48.690;9.686;2024-02-21T06:51:12;13.27;;;0.80;;
18298;SDS011;9275;48.690;9.686;2024-02-21T06:56:17;13.30;;;1.00;;
18298;SDS011;9275;48.690;9.686;2024-02-21T07:01:23;3.40;;;0.67;;
18298;SDS011;9275;48.690;9.686;2024-02-21T07:06:28;54.60;;;3.03;;
18298;SDS011;9275;48.690;9.686;2024-02-21T07:11:37;7.43;;;0.90;;
18298;SDS011;9275;48.690;9.686;2024-02-21T07:16:43;3.83;;;0.90;;
18298;SDS011;9275;48.690;9.686;2024-02-21T07:21:47;2.40;;;0.83;;
18298;SDS011;9275;48.690;9.686;2024-02-21T07:26:52;8.43;;;0.87;;
18298;SDS011;9275;48.690;9.686;2024-02-21T07:31:59;28.97;;;2.10;;
18298;SDS011;9275;48.690;9.686;2024-02-21T07:37:05;26.23;;;2.03;;
18298;SDS011;9275;48.690;9.686;2024-02-21T07:42:09;22.10;;;1.83;;
18298;SDS011;9275;48.690;9.686;2024-02-21T07:47:15;25.20;;;1.80;;
18298;SDS011;9275;48.690;9.686;2024-02-21T07:52:21;15.27;;;1.30;;
18298;SDS011;9275;48.690;9.686;2024-02-21T07:57:27;19.17;;;1.77;;
18298;SDS011;9275;48.690;9.686;2024-02-21T08:02:33;33.17;;;2.90;;
18298;SDS011;9275;48.690;9.686;2024-02-21T08:07:38;4.77;;;1.10;;
18298;SDS011;9275;48.690;9.686;2024-02-21T08:12:42;14.73;;;1.47;;
18298;SDS011;9275;48.690;9.686;2024-02-21T08:17:48;39.40;;;2.57;;
18298;SDS011;9275;48.690;9.686;2024-02-21T08:22:53;29.83;;;2.13;;
18298;SDS011;9275;48.690;9.686;2024-02-21T08:27:58;3.60;;;0.67;;
18298;SDS011;9275;48.690;9.686;2024-02-21T08:33:04;28.10;;;1.77;;
18298;SDS011;9275;48.690;9.686;2024-02-21T08:38:09;0.40;;;0.40;;
18298;SDS011;9275;48.690;9.686;2024-02-21T08:43:14;0.30;;;0.30;;
18298;SDS011;9275;48.690;9.686;2024-02-21T08:48:20;0.33;;;0.23;;
18298;SDS011;9275;48.690;9.686;2024-02-21T08:53:25;0.37;;;0.20;;
18298;SDS011;9275;48.690;9.686;2024-02-21T08:58:30;0.30;;;0.20;;
18298;SDS011;9275;48.690;9.686;2024-02-21T09:03:36;0.20;;;0.20;;
18298;SDS011;9275;48.690;9.686;2024-02-21T09:08:44;0.20;;;0.10;;
18298;SDS011;9275;48.690;9.686;2024-02-21T09:13:49;0.17;;;0.17;;
18298;SDS011;9275;48.690;9.686;2024-02-21T09:18:55;0.10;;;0.10;;
18298;SDS011;9275;48.690;9.686;2024-02-21T09:24:00;0.10;;;0.10;;
18298;SDS011;9275;48.690;9.686;2024-02-21T09:29:05;0.20;;;0.20;;
18298;SDS011;9275;48.690;9.686;2024-02-21T09:34:12;0.10;;;0.10;;
18298;SDS011;9275;48.690;9.686;2024-02-21T09:39:16;0.17;;;0.10;;
18298;SDS011;9275;48.690;9.686;2024-02-21T09:44:21;0.20;;;0.20;;
18298;SDS011;9275;48.690;9.686;2024-02-21T09:49:29;0.10;;;0.10;;
18298;SDS011;9275;48.690;9.686;2024-02-21T09:54:35;0.10;;;0.10;;
18298;SDS011;9275;48.690;9.686;2024-02-21T09:59:40;0.10;;;0.10;;
18298;SDS011;9275;48.690;9.686;2024-02-21T10:04:47;0.10;;;0.10;;
18298;SDS011;9275;48.690;9.686;2024-02-21T10:09:59;0.10;;;0.10;;
18298;SDS011;9275;48.690;9.686;2024-02-21T10:15:05;0.10;;;0.10;;
18298;SDS011;9275;48.690;9.686;2024-02-21T10:20:12;0.10;;;0.10;;
18298;SDS011;9275;48.690;9.686;2024-02-21T10:25:18;0.10;;;0.10;;
18298;SDS011;9275;48.690;9.686;2024-02-21T10:30:24;0.20;;;0.20;;
18298;SDS011;9275;48.690;9.686;2024-02-21T10:35:30;0.30;;;0.20;;
18298;SDS011;9275;48.690;9.686;2024-02-21T10:40:36;0.17;;;0.13;;
18298;SDS011;9275;48.690;9.686;2024-02-21T10:45:40;0.40;;;0.40;;
18298;SDS011;9275;48.690;9.686;2024-02-21T10:50:53;0.20;;;0.20;;
18298;SDS011;9275;48.690;9.686;2024-02-21T10:56:06;0.37;;;0.20;;
18298;SDS011;9275;48.690;9.686;2024-02-21T11:01:20;0.20;;;0.20;;
18298;SDS011;9275;48.690;9.686;2024-02-21T11:06:27;0.30;;;0.20;;
18298;SDS011;9275;48.690;9.686;2024-02-21T11:11:35;0.20;;;0.20;;
18298;SDS011;9275;48.690;9.686;2024-02-21T11:16:42;0.20;;;0.20;;
18298;SDS011;9275;48.690;9.686;2024-02-21T11:21:49;0.50;;;0.20;;
18298;SDS011;9275;48.690;9.686;2024-02-21T11:26:54;0.20;;;0.20;;
18298;SDS011;9275;48.690;9.686;2024-02-21T11:31:59;0.20;;;0.20;;
18298;SDS011;9275;48.690;9.686;2024-02-21T11:37:14;0.20;;;0.10;;
18298;SDS011;9275;48.690;9.686;2024-02-21T11:42:19;0.20;;;0.20;;
18298;SDS011;9275;48.690;9.686;2024-02-21T11:47:25;0.20;;;0.20;;
18298;SDS011;9275;48.690;9.686;2024-02-21T11:52:33;0.30;;;0.20;;
18298;SDS011;9275;48.690;9.686;2024-02-21T11:57:38;0.60;;;0.30;;
18298;SDS011;9275;48.690;9.686;2024-02-21T12:02:46;0.10;;;0.10;;
18298;SDS011;9275;48.690;9.686;2024-02-21T12:07:52;0.40;;;0.20;;
18298;SDS011;9275;48.690;9.686;2024-02-21T12:13:04;0.20;;;0.10;;
18298;SDS011;9275;48.690;9.686;2024-02-21T12:18:10;0.47;;;0.20;;
18298;SDS011;9275;48.690;9.686;2024-02-21T12:23:16;0.20;;;0.10;;
18298;SDS011;9275;48.690;9.686;2024-02-21T12:28:22;0.20;;;0.10;;
18298;SDS011;9275;48.690;9.686;2024-02-21T12:33:27;0.10;;;0.10;;
18298;SDS011;9275;48.690;9.686;2024-02-21T12:38:33;0.10;;;0.10;;
18298;SDS011;9275;48.690;9.686;2024-02-21T12:43:40;0.10;;;0.10;;
18298;SDS011;9275;48.690;9.686;2024-02-21T12:48:45;0.10;;;0.10;;
18298;SDS011;9275;48.690;9.686;2024-02-21T12:53:51;0.10;;;0.10;;
18298;SDS011;9275;48.690;9.686;2024-02-21T12:58:56;0.60;;;0.33;;
18298;SDS011;9275;48.690;9.686;2024-02-21T13:04:01;0.10;;;0.10;;
18298;SDS011;9275;48.690;9.686;2024-02-21T13:09:07;0.10;;;0.10;;
18298;SDS011;9275;48.690;9.686;2024-02-21T13:14:13;0.10;;;0.10;;
18298;SDS011;9275;48.690;9.686;2024-02-21T13:19:18;0.10;;;0.10;;
18298;SDS011;9275;48.690;9.686;2024-02-21T13:24:26;0.20;;;0.20;;
18298;SDS011;9275;48.690;9.686;2024-02-21T13:29:32;0.20;;;0.20;;
18298;SDS011;9275;48.690;9.686;2024-02-21T13:34:36;0.13;;;0.13;;
18298;SDS011;9275;48.690;9.686;2024-02-21T13:39:42;0.20;;;0.10;;
18298;SDS011;9275;48.690;9.686;2024-02-21T13:44:49;0.10;;;0.10;;
18298;SDS011;9275;48.690;9.686;2024-02-21T13:49:54;0.10;;;0.10;;
18298;SDS011;9275;48.690;9.686;2024-02-21T13:55:00;0.20;;;0.20;;
18298;SDS011;9275;48.690;9.686;2024-02-21T14:00:05;0.10;;;0.10;;
18298;SDS011;9275;48.690;9.686;2024-02-21T14:05:13;0.20;;;0.20;;
18298;SDS011;9275;48.690;9.686;2024-02-21T14:10:19;0.20;;;0.20;;
18298;SDS011;9275;48.690;9.686;2024-02-21T14:15:23;0.10;;;0.10;;
18298;SDS011;9275;48.690;9.686;2024-02-21T14:20:28;0.23;;;0.13;;
18298;SDS011;9275;48.690;9.686;2024-02-21T14:25:34;0.20;;;0.20;;
18298;SDS011;9275;48.690;9.686;2024-02-21T14:30:39;0.20;;;0.20;;
18298;SDS011;9275;48.690;9.686;2024-02-21T14:35:44;0.17;;;0.17;;
18298;SDS011;9275;48.690;9.686;2024-02-21T14:40:50;0.30;;;0.30;;
18298;SDS011;9275;48.690;9.686;2024-02-21T14:45:54;0.53;;;0.20;;
18298;SDS011;9275;48.690;9.686;2024-02-21T14:50:59;0.40;;;0.17;;
18298;SDS011;9275;48.690;9.686;2024-02-21T14:56:12;0.30;;;0.20;;
18298;SDS011;9275;48.690;9.686;2024-02-21T15:01:18;0.20;;;0.20;;
18298;SDS011;9275;48.690;9.686;2024-02-21T15:06:22;0.10;;;0.10;;
18298;SDS011;9275;48.690;9.686;2024-02-21T15:11:28;0.20;;;0.20;;
18298;SDS011;9275;48.690;9.686;2024-02-21T15:16:33;0.30;;;0.20;;
18298;SDS011;9275;48.690;9.686;2024-02-21T15:21:38;0.17;;;0.17;;
18298;SDS011;9275;48.690;9.686;2024-02-21T15:26:44;0.30;;;0.20;;
18298;SDS011;9275;48.690;9.686;2024-02-21T15:31:49;0.43;;;0.30;;
18298;SDS011;9275;48.690;9.686;2024-02-21T15:36:53;0.17;;;0.17;;
18298;SDS011;9275;48.690;9.686;2024-02-21T15:42:00;0.20;;;0.20;;
18298;SDS011;9275;48.690;9.686;2024-02-21T15:47:05;0.20;;;0.20;;
18298;SDS011;9275;48.690;9.686;2024-02-21T15:52:10;0.13;;;0.13;;
18298;SDS011;9275;48.690;9.686;2024-02-21T15:57:16;0.20;;;0.20;;
18298;SDS011;9275;48.690;9.686;2024-02-21T16:02:21;0.20;;;0.20;;
18298;SDS011;9275;48.690;9.686;2024-02-21T16:07:27;0.20;;;0.20;;
18298;SDS011;9275;48.690;9.686;2024-02-21T16:12:33;0.20;;;0.20;;
18298;SDS011;9275;48.690;9.686;2024-02-21T16:17:37;0.27;;;0.27;;
18298;SDS011;9275;48.690;9.686;2024-02-21T16:22:43;0.20;;;0.20;;
18298;SDS011;9275;48.690;9.686;2024-02-21T16:27:49;0.60;;;0.20;;
18298;SDS011;9275;48.690;9.686;2024-02-21T16:32:53;0.73;;;0.30;;
18298;SDS011;9275;48.690;9.686;2024-02-21T16:37:58;0.23;;;0.23;;
18298;SDS011;9275;48.690;9.686;2024-02-21T16:43:06;0.20;;;0.20;;
18298;SDS011;9275;48.690;9.686;2024-02-21T16:48:10;0.97;;;0.20;;
18298;SDS011;9275;48.690;9.686;2024-02-21T16:53:15;0.20;;;0.20;;
18298;SDS011;9275;48.690;9.686;2024-02-21T16:58:21;0.20;;;0.20;;
18298;SDS011;9275;48.690;9.686;2024-02-21T17:03:26;0.30;;;0.27;;
18298;SDS011;9275;48.690;9.686;2024-02-21T17:08:31;0.30;;;0.30;;
18298;SDS011;9275;48.690;9.686;2024-02-21T17:13:37;0.20;;;0.20;;
18298;SDS011;9275;48.690;9.686;2024-02-21T17:18:41;0.20;;;0.20;;
18298;SDS011;9275;48.690;9.686;2024-02-21T17:23:48;0.40;;;0.30;;
18298;SDS011;9275;48.690;9.686;2024-02-21T17:28:54;1.23;;;0.30;;
18298;SDS011;9275;48.690;9.686;2024-02-21T17:33:58;0.40;;;0.30;;
18298;SDS011;9275;48.690;9.686;2024-02-21T17:39:03;0.40;;;0.30;;
18298;SDS011;9275;48.690;9.686;2024-02-21T17:44:13;0.40;;;0.20;;
18298;SDS011;9275;48.690;9.686;2024-02-21T17:49:18;0.37;;;0.30;;
18298;SDS011;9275;48.690;9.686;2024-02-21T17:54:23;0.30;;;0.30;;
18298;SDS011;9275;48.690;9.686;2024-02-21T17:59:29;0.90;;;0.40;;
18298;SDS011;9275;48.690;9.686;2024-02-21T18:04:34;0.93;;;0.50;;
18298;SDS011;9275;48.690;9.686;2024-02-21T18:09:39;1.93;;;0.40;;
18298;SDS011;9275;48.690;9.686;2024-02-21T18:14:45;0.87;;;0.40;;
18298;SDS011;9275;48.690;9.686;2024-02-21T18:19:49;0.23;;;0.23;;
18298;SDS011;9275;48.690;9.686;2024-02-21T18:24:54;0.60;;;0.40;;
18298;SDS011;9275;48.690;9.686;2024-02-21T18:30:01;0.80;;;0.40;;
18298;SDS011;9275;48.690;9.686;2024-02-21T18:35:06;0.30;;;0.30;;
18298;SDS011;9275;48.690;9.686;2024-02-21T18:40:11;0.47;;;0.37;;
18298;SDS011;9275;48.690;9.686;2024-02-21T18:45:19;0.30;;;0.30;;
18298;SDS011;9275;48.690;9.686;2024-02-21T18:50:24;2.00;;;0.80;;
18298;SDS011;9275;48.690;9.686;2024-02-21T18:55:29;0.70;;;0.40;;
18298;SDS011;9275;48.690;9.686;2024-02-21T19:00:35;0.70;;;0.30;;
18298;SDS011;9275;48.690;9.686;2024-02-21T19:05:40;0.40;;;0.30;;
18298;SDS011;9275;48.690;9.686;2024-02-21T19:10:44;0.40;;;0.40;;
18298;SDS011;9275;48.690;9.686;2024-02-21T19:15:51;0.40;;;0.30;;
18298;SDS011;9275;48.690;9.686;2024-02-21T19:20:55;0.23;;;0.20;;
18298;SDS011;9275;48.690;9.686;2024-02-21T19:26:00;0.40;;;0.30;;
18298;SDS011;9275;48.690;9.686;2024-02-21T19:31:06;0.20;;;0.20;;
18298;SDS011;9275;48.690;9.686;2024-02-21T19:36:11;0.60;;;0.40;;
18298;SDS011;9275;48.690;9.686;2024-02-21T19:41:16;0.50;;;0.40;;
18298;SDS011;9275;48.690;9.686;2024-02-21T19:46:22;1.17;;;0.20;;
18298;SDS011;9275;48.690;9.686;2024-02-21T19:51:27;0.30;;;0.30;;
18298;SDS011;9275;48.690;9.686;2024-02-21T19:56:31;0.37;;;0.20;;
18298;SDS011;9275;48.690;9.686;2024-02-21T20:01:37;0.30;;;0.30;;
18298;SDS011;9275;48.690;9.686;2024-02-21T20:06:42;0.87;;;0.47;;
18298;SDS011;9275;48.690;9.686;2024-02-21T20:11:47;0.40;;;0.30;;
18298;SDS011;9275;48.690;9.686;2024-02-21T20:16:54;0.60;;;0.40;;
18298;SDS011;9275;48.690;9.686;2024-02-21T20:21:58;0.83;;;0.40;;
18298;SDS011;9275;48.690;9.686;2024-02-21T20:27:03;0.43;;;0.30;;
18298;SDS011;9275;48.690;9.686;2024-02-21T20:32:10;0.50;;;0.33;;
18298;SDS011;9275;48.690;9.686;2024-02-21T20:37:14;0.30;;;0.30;;
18298;SDS011;9275;48.690;9.686;2024-02-21T20:42:19;0.40;;;0.40;;
18298;SDS011;9275;48.690;9.686;2024-02-21T20:47:28;0.30;;;0.30;;
18298;SDS011;9275;48.690;9.686;2024-02-21T20:52:32;0.77;;;0.30;;
18298;SDS011;9275;48.690;9.686;2024-02-21T20:57:38;3.33;;;0.40;;
18298;SDS011;9275;48.690;9.686;2024-02-21T21:02:44;3.33;;;0.40;;
18298;SDS011;9275;48.690;9.686;2024-02-21T21:07:49;0.73;;;0.40;;
18298;SDS011;9275;48.690;9.686;2024-02-21T21:12:54;1.20;;;0.57;;
18298;SDS011;9275;48.690;9.686;2024-02-21T21:18:00;0.50;;;0.33;;
18298;SDS011;9275;48.690;9.686;2024-02-21T21:23:05;0.70;;;0.50;;
18298;SDS011;9275;48.690;9.686;2024-02-21T21:28:10;0.90;;;0.50;;
18298;SDS011;9275;48.690;9.686;2024-02-21T21:33:16;0.83;;;0.47;;
18298;SDS011;9275;48.690;9.686;2024-02-21T21:38:22;1.27;;;0.30;;
18298;SDS011;9275;48.690;9.686;2024-02-21T21:43:26;0.40;;;0.30;;
18298;SDS011;9275;48.690;9.686;2024-02-21T21:48:32;0.83;;;0.50;;
18298;SDS011;9275;48.690;9.686;2024-02-21T21:53:37;0.50;;;0.30;;
18298;SDS011;9275;48.690;9.686;2024-02-21T21:58:42;0.47;;;0.40;;
18298;SDS011;9275;48.690;9.686;2024-02-21T22:03:49;0.40;;;0.30;;
18298;SDS011;9275;48.690;9.686;2024-02-21T22:08:54;0.40;;;0.40;;
18298;SDS011;9275;48.690;9.686;2024-02-21T22:13:59;0.43;;;0.40;;
18298;SDS011;9275;48.690;9.686;2024-02-21T22:19:05;0.30;;;0.30;;
18298;SDS011;9275;48.690;9.686;2024-02-21T22:24:10;1.23;;;0.30;;
18298;SDS011;9275;48.690;9.686;2024-02-21T22:29:15;0.60;;;0.30;;
18298;SDS011;9275;48.690;9.686;2024-02-21T22:34:21;1.03;;;0.20;;
18298;SDS011;9275;48.690;9.686;2024-02-21T22:39:26;0.87;;;0.30;;
18298;SDS011;9275;48.690;9.686;2024-02-21T22:44:30;0.57;;;0.30;;
18298;SDS011;9275;48.690;9.686;2024-02-21T22:49:36;0.50;;;0.40;;
18298;SDS011;9275;48.690;9.686;2024-02-21T22:54:41;2.43;;;0.60;;
18298;SDS011;9275;48.690;9.686;2024-02-21T22:59:46;1.03;;;0.63;;
18298;SDS011;9275;48.690;9.686;2024-02-21T23:04:53;0.70;;;0.57;;
18298;SDS011;9275;48.690;9.686;2024-02-21T23:09:57;1.77;;;0.67;;
18298;SDS011;9275;48.690;9.686;2024-02-21T23:15:02;2.67;;;0.60;;
18298;SDS011;9275;48.690;9.686;2024-02-21T23:20:10;2.80;;;1.00;;
18298;SDS011;9275;48.690;9.686;2024-02-21T23:25:15;1.63;;;0.80;;
18298;SDS011;9275;48.690;9.686;2024-02-21T23:30:21;2.13;;;0.97;;
18298;SDS011;9275;48.690;9.686;2024-02-21T23:35:27;1.80;;;0.97;;
18298;SDS011;9275;48.690;9.686;2024-02-21T23:40:32;3.10;;;1.13;;
18298;SDS011;9275;48.690;9.686;2024-02-21T23:45:37;2.93;;;1.30;;
18298;SDS011;9275;48.690;9.686;2024-02-21T23:50:43;8.97;;;1.70;;
18298;SDS011;9275;48.690;9.686;2024-02-21T23:55:47;8.93;;;1.93;;
